sensor_id;sensor_type;location;lat;lon;timestamp;P1;durP1;ratioP1;P2;durP2;ratioP2
49310;SDS011;35177;45.900;5.946;2023-02-01T00:00:13;39.10;;;20.63;;
49310;SDS011;35177;45.900;5.946;2023-02-01T00:02:39;44.60;;;23.88;;
49310;SDS011;35177;45.900;5.946;2023-02-01T00:05:08;41.45;;;23.23;;
49310;SDS011;35177;45.900;5.946;2023-02-01T00:07:35;39.10;;;21.52;;
49310;SDS011;35177;45.900;5.946;2023-02-01T00:10:01;39.45;;;20.42;;
49310;SDS011;35177;45.900;5.946;2023-02-01T00:12:26;38.47;;;23.38;;
49310;SDS011;35177;45.900;5.946;2023-02-01T00:14:52;37.97;;;20.42;;
49310;SDS011;35177;45.900;5.946;2023-02-01T00:17:17;33.80;;;19.10;;
49310;SDS011;35177;45.900;5.946;2023-02-01T00:19:43;31.95;;;18.38;;
49310;SDS011;35177;45.900;5.946;2023-02-01T00:22:08;29.88;;;18.63;;
49310;SDS011;35177;45.900;5.946;2023-02-01T00:24:34;29.42;;;16.83;;
49310;SDS011;35177;45.900;5.946;2023-02-01T00:26:59;32.72;;;17.10;;
49310;SDS011;35177;45.900;5.946;2023-02-01T00:29:25;29.45;;;16.17;;
49310;SDS011;35177;45.900;5.946;2023-02-01T00:31:52;27.48;;;15.90;;
49310;SDS011;35177;45.900;5.946;2023-02-01T00:34:18;28.30;;;15.85;;
49310;SDS011;35177;45.900;5.946;2023-02-01T00:36:45;29.02;;;16.80;;
49310;SDS011;35177;45.900;5.946;2023-02-01T00:39:11;26.95;;;16.75;;
49310;SDS011;35177;45.900;5.946;2023-02-01T00:41:40;28.60;;;16.88;;
49310;SDS011;35177;45.900;5.946;2023-02-01T00:44:05;34.25;;;18.08;;
49310;SDS011;35177;45.900;5.946;2023-02-01T00:46:31;36.05;;;19.20;;
49310;SDS011;35177;45.900;5.946;2023-02-01T00:48:57;30.67;;;18.30;;
49310;SDS011;35177;45.900;5.946;2023-02-01T00:51:24;32.30;;;17.80;;
49310;SDS011;35177;45.900;5.946;2023-02-01T00:53:54;33.75;;;16.67;;
49310;SDS011;35177;45.900;5.946;2023-02-01T00:56:22;32.25;;;16.23;;
49310;SDS011;35177;45.900;5.946;2023-02-01T00:58:48;28.55;;;16.42;;
49310;SDS011;35177;45.900;5.946;2023-02-01T01:01:17;29.00;;;17.02;;
49310;SDS011;35177;45.900;5.946;2023-02-01T01:03:52;28.05;;;16.20;;
49310;SDS011;35177;45.900;5.946;2023-02-01T01:06:21;28.83;;;15.05;;
49310;SDS011;35177;45.900;5.946;2023-02-01T01:08:51;22.83;;;13.93;;
49310;SDS011;35177;45.900;5.946;2023-02-01T01:11:20;27.60;;;14.23;;
49310;SDS011;35177;45.900;5.946;2023-02-01T01:13:48;23.65;;;14.43;;
49310;SDS011;35177;45.900;5.946;2023-02-01T01:16:16;25.80;;;14.40;;
49310;SDS011;35177;45.900;5.946;2023-02-01T01:18:42;25.23;;;13.70;;
49310;SDS011;35177;45.900;5.946;2023-02-01T01:21:09;24.13;;;13.98;;
49310;SDS011;35177;45.900;5.946;2023-02-01T01:23:37;23.13;;;14.45;;
49310;SDS011;35177;45.900;5.946;2023-02-01T01:26:06;24.77;;;14.20;;
49310;SDS011;35177;45.900;5.946;2023-02-01T01:28:37;24.58;;;14.65;;
49310;SDS011;35177;45.900;5.946;2023-02-01T01:31:02;26.40;;;14.93;;
49310;SDS011;35177;45.900;5.946;2023-02-01T01:33:28;24.35;;;14.32;;
49310;SDS011;35177;45.900;5.946;2023-02-01T01:35:54;25.08;;;14.57;;
49310;SDS011;35177;45.900;5.946;2023-02-01T01:38:20;24.48;;;15.20;;
49310;SDS011;35177;45.900;5.946;2023-02-01T01:40:46;26.65;;;14.82;;
49310;SDS011;35177;45.900;5.946;2023-02-01T01:43:15;26.02;;;13.88;;
49310;SDS011;35177;45.900;5.946;2023-02-01T01:45:42;23.92;;;14.63;;
49310;SDS011;35177;45.900;5.946;2023-02-01T01:48:22;28.05;;;14.77;;
49310;SDS011;35177;45.900;5.946;2023-02-01T01:53:30;21.67;;;13.82;;
49310;SDS011;35177;45.900;5.946;2023-02-01T01:55:59;22.35;;;13.63;;
49310;SDS011;35177;45.900;5.946;2023-02-01T01:58:26;30.83;;;15.48;;
49310;SDS011;35177;45.900;5.946;2023-02-01T02:00:54;25.77;;;14.63;;
49310;SDS011;35177;45.900;5.946;2023-02-01T02:03:22;27.08;;;15.07;;
49310;SDS011;35177;45.900;5.946;2023-02-01T02:05:52;24.38;;;14.48;;
49310;SDS011;35177;45.900;5.946;2023-02-01T02:08:20;30.77;;;15.23;;
49310;SDS011;35177;45.900;5.946;2023-02-01T02:10:48;31.27;;;16.52;;
49310;SDS011;35177;45.900;5.946;2023-02-01T02:25:01;22.15;;;13.07;;
49310;SDS011;35177;45.900;5.946;2023-02-01T02:37:50;27.25;;;16.42;;
49310;SDS011;35177;45.900;5.946;2023-02-01T02:46:01;29.27;;;14.85;;
49310;SDS011;35177;45.900;5.946;2023-02-01T02:54:33;24.63;;;13.93;;
49310;SDS011;35177;45.900;5.946;2023-02-01T03:00:07;23.08;;;13.73;;
49310;SDS011;35177;45.900;5.946;2023-02-01T03:02:54;23.48;;;14.48;;
49310;SDS011;35177;45.900;5.946;2023-02-01T03:05:40;27.83;;;14.40;;
49310;SDS011;35177;45.900;5.946;2023-02-01T03:08:14;25.08;;;13.48;;
49310;SDS011;35177;45.900;5.946;2023-02-01T03:11:04;29.58;;;14.68;;
49310;SDS011;35177;45.900;5.946;2023-02-01T03:13:54;27.00;;;15.05;;
49310;SDS011;35177;45.900;5.946;2023-02-01T03:16:22;27.90;;;14.52;;
49310;SDS011;35177;45.900;5.946;2023-02-01T03:21:24;25.60;;;13.77;;
49310;SDS011;35177;45.900;5.946;2023-02-01T03:23:50;22.95;;;12.80;;
49310;SDS011;35177;45.900;5.946;2023-02-01T03:26:20;24.17;;;13.55;;
49310;SDS011;35177;45.900;5.946;2023-02-01T03:28:52;25.98;;;14.82;;
49310;SDS011;35177;45.900;5.946;2023-02-01T03:31:22;27.83;;;15.10;;
49310;SDS011;35177;45.900;5.946;2023-02-01T03:33:48;24.77;;;14.60;;
49310;SDS011;35177;45.900;5.946;2023-02-01T03:36:15;27.75;;;14.50;;
49310;SDS011;35177;45.900;5.946;2023-02-01T03:38:54;27.50;;;15.70;;
49310;SDS011;35177;45.900;5.946;2023-02-01T03:41:51;28.38;;;17.63;;
49310;SDS011;35177;45.900;5.946;2023-02-01T03:44:24;29.13;;;15.60;;
49310;SDS011;35177;45.900;5.946;2023-02-01T03:49:38;24.17;;;15.57;;
49310;SDS011;35177;45.900;5.946;2023-02-01T03:52:11;25.63;;;13.50;;
49310;SDS011;35177;45.900;5.946;2023-02-01T03:54:40;27.88;;;14.73;;
49310;SDS011;35177;45.900;5.946;2023-02-01T03:57:08;21.88;;;13.93;;
49310;SDS011;35177;45.900;5.946;2023-02-01T03:59:40;22.42;;;13.60;;
49310;SDS011;35177;45.900;5.946;2023-02-01T04:02:07;24.92;;;13.38;;
49310;SDS011;35177;45.900;5.946;2023-02-01T04:04:35;22.48;;;13.18;;
49310;SDS011;35177;45.900;5.946;2023-02-01T04:07:01;23.52;;;14.57;;
49310;SDS011;35177;45.900;5.946;2023-02-01T04:09:27;28.05;;;16.67;;
49310;SDS011;35177;45.900;5.946;2023-02-01T04:11:52;27.40;;;15.10;;
49310;SDS011;35177;45.900;5.946;2023-02-01T04:14:18;27.63;;;15.57;;
49310;SDS011;35177;45.900;5.946;2023-02-01T04:16:43;29.38;;;16.02;;
49310;SDS011;35177;45.900;5.946;2023-02-01T04:19:09;24.67;;;14.60;;
49310;SDS011;35177;45.900;5.946;2023-02-01T04:21:35;28.80;;;17.02;;
49310;SDS011;35177;45.900;5.946;2023-02-01T04:24:00;31.63;;;16.40;;
49310;SDS011;35177;45.900;5.946;2023-02-01T04:26:26;27.48;;;16.23;;
49310;SDS011;35177;45.900;5.946;2023-02-01T04:28:51;28.02;;;16.10;;
49310;SDS011;35177;45.900;5.946;2023-02-01T04:31:17;26.15;;;14.82;;
49310;SDS011;35177;45.900;5.946;2023-02-01T04:33:51;26.33;;;15.20;;
49310;SDS011;35177;45.900;5.946;2023-02-01T04:36:18;27.20;;;17.10;;
49310;SDS011;35177;45.900;5.946;2023-02-01T04:38:48;28.67;;;15.55;;
49310;SDS011;35177;45.900;5.946;2023-02-01T04:41:14;28.40;;;16.13;;
49310;SDS011;35177;45.900;5.946;2023-02-01T04:43:43;30.42;;;15.48;;
49310;SDS011;35177;45.900;5.946;2023-02-01T04:46:10;28.20;;;17.33;;
49310;SDS011;35177;45.900;5.946;2023-02-01T04:48:35;35.38;;;18.63;;
49310;SDS011;35177;45.900;5.946;2023-02-01T04:51:01;36.85;;;19.98;;
49310;SDS011;35177;45.900;5.946;2023-02-01T04:53:26;40.15;;;21.02;;
49310;SDS011;35177;45.900;5.946;2023-02-01T04:55:52;33.65;;;18.75;;
49310;SDS011;35177;45.900;5.946;2023-02-01T04:58:17;36.30;;;20.02;;
49310;SDS011;35177;45.900;5.946;2023-02-01T05:00:43;36.20;;;20.55;;
49310;SDS011;35177;45.900;5.946;2023-02-01T05:03:08;31.98;;;17.85;;
49310;SDS011;35177;45.900;5.946;2023-02-01T05:05:34;29.42;;;16.45;;
49310;SDS011;35177;45.900;5.946;2023-02-01T05:07:59;31.42;;;16.70;;
49310;SDS011;35177;45.900;5.946;2023-02-01T05:10:25;34.30;;;19.73;;
49310;SDS011;35177;45.900;5.946;2023-02-01T05:12:50;27.10;;;17.00;;
49310;SDS011;35177;45.900;5.946;2023-02-01T05:15:34;28.17;;;16.90;;
49310;SDS011;35177;45.900;5.946;2023-02-01T05:18:00;32.28;;;17.45;;
49310;SDS011;35177;45.900;5.946;2023-02-01T05:20:25;35.78;;;17.13;;
49310;SDS011;35177;45.900;5.946;2023-02-01T05:22:51;30.85;;;17.63;;
49310;SDS011;35177;45.900;5.946;2023-02-01T05:25:16;35.13;;;17.75;;
49310;SDS011;35177;45.900;5.946;2023-02-01T05:27:42;28.95;;;16.40;;
49310;SDS011;35177;45.900;5.946;2023-02-01T05:30:08;27.80;;;16.73;;
49310;SDS011;35177;45.900;5.946;2023-02-01T05:32:34;29.08;;;16.30;;
49310;SDS011;35177;45.900;5.946;2023-02-01T05:34:59;29.08;;;15.73;;
49310;SDS011;35177;45.900;5.946;2023-02-01T05:37:25;37.45;;;17.23;;
49310;SDS011;35177;45.900;5.946;2023-02-01T05:39:51;26.45;;;15.98;;
49310;SDS011;35177;45.900;5.946;2023-02-01T05:42:16;34.22;;;19.25;;
49310;SDS011;35177;45.900;5.946;2023-02-01T05:44:42;30.65;;;19.02;;
49310;SDS011;35177;45.900;5.946;2023-02-01T05:47:07;33.85;;;18.02;;
49310;SDS011;35177;45.900;5.946;2023-02-01T05:49:33;35.58;;;18.92;;
49310;SDS011;35177;45.900;5.946;2023-02-01T05:51:59;35.10;;;17.70;;
49310;SDS011;35177;45.900;5.946;2023-02-01T05:54:24;30.08;;;17.83;;
49310;SDS011;35177;45.900;5.946;2023-02-01T05:56:50;32.05;;;18.73;;
49310;SDS011;35177;45.900;5.946;2023-02-01T05:59:15;32.80;;;19.70;;
49310;SDS011;35177;45.900;5.946;2023-02-01T06:01:41;32.63;;;19.67;;
49310;SDS011;35177;45.900;5.946;2023-02-01T06:04:08;31.70;;;20.17;;
49310;SDS011;35177;45.900;5.946;2023-02-01T06:06:34;33.25;;;19.30;;
49310;SDS011;35177;45.900;5.946;2023-02-01T06:09:00;32.75;;;19.20;;
49310;SDS011;35177;45.900;5.946;2023-02-01T06:11:25;34.67;;;21.17;;
49310;SDS011;35177;45.900;5.946;2023-02-01T06:13:52;30.95;;;20.38;;
49310;SDS011;35177;45.900;5.946;2023-02-01T06:16:18;34.75;;;20.55;;
49310;SDS011;35177;45.900;5.946;2023-02-01T06:18:44;36.80;;;22.15;;
49310;SDS011;35177;45.900;5.946;2023-02-01T06:21:09;37.58;;;21.77;;
49310;SDS011;35177;45.900;5.946;2023-02-01T06:23:35;40.80;;;22.00;;
49310;SDS011;35177;45.900;5.946;2023-02-01T06:26:01;37.97;;;22.25;;
49310;SDS011;35177;45.900;5.946;2023-02-01T06:28:29;39.65;;;23.23;;
49310;SDS011;35177;45.900;5.946;2023-02-01T06:30:55;39.38;;;22.48;;
49310;SDS011;35177;45.900;5.946;2023-02-01T06:33:20;38.95;;;21.30;;
49310;SDS011;35177;45.900;5.946;2023-02-01T06:35:46;40.33;;;24.05;;
49310;SDS011;35177;45.900;5.946;2023-02-01T06:38:12;33.78;;;21.48;;
49310;SDS011;35177;45.900;5.946;2023-02-01T06:40:40;37.33;;;20.67;;
49310;SDS011;35177;45.900;5.946;2023-02-01T06:43:07;43.05;;;19.65;;
49310;SDS011;35177;45.900;5.946;2023-02-01T06:45:33;35.60;;;19.23;;
49310;SDS011;35177;45.900;5.946;2023-02-01T06:47:59;34.40;;;19.77;;
49310;SDS011;35177;45.900;5.946;2023-02-01T06:50:27;34.78;;;20.77;;
49310;SDS011;35177;45.900;5.946;2023-02-01T06:52:53;33.25;;;18.67;;
49310;SDS011;35177;45.900;5.946;2023-02-01T06:55:18;34.90;;;19.63;;
49310;SDS011;35177;45.900;5.946;2023-02-01T06:57:44;36.08;;;21.23;;
49310;SDS011;35177;45.900;5.946;2023-02-01T07:00:09;38.25;;;20.42;;
49310;SDS011;35177;45.900;5.946;2023-02-01T07:02:35;36.90;;;20.30;;
49310;SDS011;35177;45.900;5.946;2023-02-01T07:05:05;37.53;;;20.85;;
49310;SDS011;35177;45.900;5.946;2023-02-01T07:07:30;31.20;;;17.70;;
49310;SDS011;35177;45.900;5.946;2023-02-01T07:09:56;28.27;;;15.43;;
49310;SDS011;35177;45.900;5.946;2023-02-01T07:12:21;24.45;;;14.60;;
49310;SDS011;35177;45.900;5.946;2023-02-01T07:14:47;25.30;;;15.43;;
49310;SDS011;35177;45.900;5.946;2023-02-01T07:17:12;25.13;;;15.02;;
49310;SDS011;35177;45.900;5.946;2023-02-01T07:19:37;34.38;;;19.85;;
49310;SDS011;35177;45.900;5.946;2023-02-01T07:22:03;31.95;;;20.20;;
49310;SDS011;35177;45.900;5.946;2023-02-01T07:24:30;28.30;;;17.75;;
49310;SDS011;35177;45.900;5.946;2023-02-01T07:26:56;31.52;;;19.23;;
49310;SDS011;35177;45.900;5.946;2023-02-01T07:29:21;38.38;;;21.55;;
49310;SDS011;35177;45.900;5.946;2023-02-01T07:34:56;33.97;;;21.95;;
49310;SDS011;35177;45.900;5.946;2023-02-01T07:37:23;30.05;;;20.35;;
49310;SDS011;35177;45.900;5.946;2023-02-01T07:39:49;27.50;;;18.02;;
49310;SDS011;35177;45.900;5.946;2023-02-01T07:42:16;27.10;;;17.10;;
49310;SDS011;35177;45.900;5.946;2023-02-01T07:44:41;29.08;;;16.73;;
49310;SDS011;35177;45.900;5.946;2023-02-01T07:47:07;26.48;;;15.57;;
49310;SDS011;35177;45.900;5.946;2023-02-01T07:49:32;30.42;;;15.50;;
49310;SDS011;35177;45.900;5.946;2023-02-01T07:51:57;22.90;;;15.43;;
49310;SDS011;35177;45.900;5.946;2023-02-01T07:54:23;23.90;;;15.77;;
49310;SDS011;35177;45.900;5.946;2023-02-01T07:56:49;24.63;;;15.27;;
49310;SDS011;35177;45.900;5.946;2023-02-01T07:59:14;24.92;;;15.40;;
49310;SDS011;35177;45.900;5.946;2023-02-01T08:01:41;30.23;;;17.55;;
49310;SDS011;35177;45.900;5.946;2023-02-01T08:04:07;24.58;;;15.93;;
49310;SDS011;35177;45.900;5.946;2023-02-01T08:06:36;29.90;;;19.00;;
49310;SDS011;35177;45.900;5.946;2023-02-01T08:09:02;31.05;;;20.13;;
49310;SDS011;35177;45.900;5.946;2023-02-01T08:11:28;28.55;;;19.20;;
49310;SDS011;35177;45.900;5.946;2023-02-01T08:13:54;29.65;;;19.23;;
49310;SDS011;35177;45.900;5.946;2023-02-01T08:16:20;27.15;;;16.17;;
49310;SDS011;35177;45.900;5.946;2023-02-01T08:18:47;23.95;;;13.40;;
49310;SDS011;35177;45.900;5.946;2023-02-01T08:21:17;20.52;;;12.75;;
49310;SDS011;35177;45.900;5.946;2023-02-01T08:23:45;40.30;;;13.48;;
49310;SDS011;35177;45.900;5.946;2023-02-01T08:26:14;25.55;;;14.57;;
49310;SDS011;35177;45.900;5.946;2023-02-01T08:28:46;24.17;;;14.85;;
49310;SDS011;35177;45.900;5.946;2023-02-01T08:31:15;24.33;;;14.23;;
49310;SDS011;35177;45.900;5.946;2023-02-01T08:33:42;19.10;;;12.70;;
49310;SDS011;35177;45.900;5.946;2023-02-01T08:36:09;20.67;;;13.43;;
49310;SDS011;35177;45.900;5.946;2023-02-01T08:38:37;16.45;;;11.82;;
49310;SDS011;35177;45.900;5.946;2023-02-01T08:41:07;19.30;;;12.15;;
49310;SDS011;35177;45.900;5.946;2023-02-01T08:43:35;16.95;;;11.75;;
49310;SDS011;35177;45.900;5.946;2023-02-01T08:52:44;16.55;;;11.50;;
49310;SDS011;35177;45.900;5.946;2023-02-01T08:58:39;16.65;;;10.90;;
49310;SDS011;35177;45.900;5.946;2023-02-01T09:04:26;15.00;;;10.07;;
49310;SDS011;35177;45.900;5.946;2023-02-01T09:06:52;14.50;;;10.20;;
49310;SDS011;35177;45.900;5.946;2023-02-01T09:09:20;14.15;;;9.18;;
49310;SDS011;35177;45.900;5.946;2023-02-01T09:11:46;11.43;;;8.18;;
49310;SDS011;35177;45.900;5.946;2023-02-01T09:14:12;11.35;;;8.38;;
49310;SDS011;35177;45.900;5.946;2023-02-01T09:16:37;14.00;;;9.43;;
49310;SDS011;35177;45.900;5.946;2023-02-01T09:19:03;12.38;;;8.93;;
49310;SDS011;35177;45.900;5.946;2023-02-01T09:21:28;12.45;;;8.35;;
49310;SDS011;35177;45.900;5.946;2023-02-01T09:23:54;12.95;;;8.80;;
49310;SDS011;35177;45.900;5.946;2023-02-01T09:26:19;12.57;;;9.05;;
49310;SDS011;35177;45.900;5.946;2023-02-01T09:28:45;12.93;;;9.05;;
49310;SDS011;35177;45.900;5.946;2023-02-01T09:31:10;15.45;;;9.82;;
49310;SDS011;35177;45.900;5.946;2023-02-01T09:33:36;11.68;;;9.05;;
49310;SDS011;35177;45.900;5.946;2023-02-01T09:36:03;17.42;;;11.63;;
49310;SDS011;35177;45.900;5.946;2023-02-01T09:38:30;12.88;;;9.60;;
49310;SDS011;35177;45.900;5.946;2023-02-01T09:40:57;15.40;;;9.65;;
49310;SDS011;35177;45.900;5.946;2023-02-01T09:48:34;15.38;;;10.68;;
49310;SDS011;35177;45.900;5.946;2023-02-01T09:51:04;15.25;;;11.80;;
49310;SDS011;35177;45.900;5.946;2023-02-01T09:53:38;13.13;;;9.60;;
49310;SDS011;35177;45.900;5.946;2023-02-01T09:58:42;12.70;;;9.70;;
49310;SDS011;35177;45.900;5.946;2023-02-01T10:03:45;11.70;;;9.32;;
49310;SDS011;35177;45.900;5.946;2023-02-01T10:12:01;11.85;;;8.60;;
49310;SDS011;35177;45.900;5.946;2023-02-01T10:20:23;8.47;;;7.30;;
49310;SDS011;35177;45.900;5.946;2023-02-01T10:23:17;18.30;;;12.63;;
49310;SDS011;35177;45.900;5.946;2023-02-01T10:28:52;17.48;;;11.27;;
49310;SDS011;35177;45.900;5.946;2023-02-01T10:31:22;19.17;;;11.63;;
49310;SDS011;35177;45.900;5.946;2023-02-01T10:39:47;7.10;;;5.47;;
49310;SDS011;35177;45.900;5.946;2023-02-01T10:42:15;12.23;;;7.85;;
49310;SDS011;35177;45.900;5.946;2023-02-01T10:44:44;12.32;;;9.10;;
49310;SDS011;35177;45.900;5.946;2023-02-01T10:47:28;12.18;;;7.60;;
49310;SDS011;35177;45.900;5.946;2023-02-01T10:52:57;8.38;;;5.65;;
49310;SDS011;35177;45.900;5.946;2023-02-01T10:55:40;13.23;;;7.45;;
49310;SDS011;35177;45.900;5.946;2023-02-01T10:58:20;7.95;;;5.50;;
49310;SDS011;35177;45.900;5.946;2023-02-01T11:01:08;9.02;;;5.60;;
49310;SDS011;35177;45.900;5.946;2023-02-01T11:03:53;6.72;;;5.38;;
49310;SDS011;35177;45.900;5.946;2023-02-01T11:08:54;7.13;;;4.82;;
49310;SDS011;35177;45.900;5.946;2023-02-01T11:14:16;8.20;;;4.97;;
49310;SDS011;35177;45.900;5.946;2023-02-01T11:16:58;6.60;;;4.72;;
49310;SDS011;35177;45.900;5.946;2023-02-01T11:19:28;7.57;;;4.47;;
49310;SDS011;35177;45.900;5.946;2023-02-01T11:21:54;6.38;;;4.20;;
49310;SDS011;35177;45.900;5.946;2023-02-01T11:24:23;16.23;;;11.15;;
49310;SDS011;35177;45.900;5.946;2023-02-01T11:26:59;6.05;;;4.60;;
49310;SDS011;35177;45.900;5.946;2023-02-01T11:29:28;7.45;;;5.18;;
49310;SDS011;35177;45.900;5.946;2023-02-01T11:32:02;7.45;;;4.78;;
49310;SDS011;35177;45.900;5.946;2023-02-01T11:34:32;9.18;;;5.15;;
49310;SDS011;35177;45.900;5.946;2023-02-01T11:37:02;8.60;;;5.70;;
49310;SDS011;35177;45.900;5.946;2023-02-01T11:39:30;8.20;;;5.00;;
49310;SDS011;35177;45.900;5.946;2023-02-01T11:42:05;6.10;;;4.75;;
49310;SDS011;35177;45.900;5.946;2023-02-01T11:44:42;8.43;;;4.82;;
49310;SDS011;35177;45.900;5.946;2023-02-01T11:47:28;26.77;;;15.15;;
49310;SDS011;35177;45.900;5.946;2023-02-01T11:50:02;7.85;;;5.80;;
49310;SDS011;35177;45.900;5.946;2023-02-01T12:00:57;7.93;;;5.88;;
49310;SDS011;35177;45.900;5.946;2023-02-01T12:16:35;10.10;;;5.57;;
49310;SDS011;35177;45.900;5.946;2023-02-01T12:19:16;7.13;;;5.07;;
49310;SDS011;35177;45.900;5.946;2023-02-01T12:22:01;6.78;;;5.25;;
49310;SDS011;35177;45.900;5.946;2023-02-01T12:24:40;7.25;;;4.65;;
49310;SDS011;35177;45.900;5.946;2023-02-01T12:30:03;5.53;;;4.47;;
49310;SDS011;35177;45.900;5.946;2023-02-01T12:35:38;7.18;;;4.45;;
49310;SDS011;35177;45.900;5.946;2023-02-01T12:41:01;8.20;;;4.35;;
49310;SDS011;35177;45.900;5.946;2023-02-01T12:46:21;5.50;;;4.40;;
49310;SDS011;35177;45.900;5.946;2023-02-01T12:49:12;6.10;;;3.85;;
49310;SDS011;35177;45.900;5.946;2023-02-01T12:52:02;6.20;;;4.10;;
49310;SDS011;35177;45.900;5.946;2023-02-01T12:57:01;4.85;;;3.80;;
49310;SDS011;35177;45.900;5.946;2023-02-01T12:59:36;4.65;;;3.97;;
49310;SDS011;35177;45.900;5.946;2023-02-01T13:05:15;5.97;;;4.38;;
49310;SDS011;35177;45.900;5.946;2023-02-01T13:07:43;7.50;;;3.80;;
49310;SDS011;35177;45.900;5.946;2023-02-01T13:10:19;4.57;;;3.20;;
49310;SDS011;35177;45.900;5.946;2023-02-01T13:15:37;3.83;;;3.40;;
49310;SDS011;35177;45.900;5.946;2023-02-01T13:18:08;3.67;;;2.92;;
49310;SDS011;35177;45.900;5.946;2023-02-01T13:20:51;5.03;;;3.60;;
49310;SDS011;35177;45.900;5.946;2023-02-01T13:23:41;4.40;;;2.92;;
49310;SDS011;35177;45.900;5.946;2023-02-01T13:26:10;2.15;;;1.77;;
49310;SDS011;35177;45.900;5.946;2023-02-01T13:34:32;3.50;;;1.80;;
49310;SDS011;35177;45.900;5.946;2023-02-01T13:40:47;2.28;;;1.85;;
49310;SDS011;35177;45.900;5.946;2023-02-01T13:43:29;1.60;;;1.50;;
49310;SDS011;35177;45.900;5.946;2023-02-01T13:45:57;2.22;;;1.52;;
49310;SDS011;35177;45.900;5.946;2023-02-01T13:51:40;3.47;;;1.52;;
49310;SDS011;35177;45.900;5.946;2023-02-01T13:54:22;2.22;;;1.65;;
49310;SDS011;35177;45.900;5.946;2023-02-01T13:56:50;5.60;;;2.10;;
49310;SDS011;35177;45.900;5.946;2023-02-01T13:59:35;4.32;;;1.83;;
49310;SDS011;35177;45.900;5.946;2023-02-01T14:23:40;1.58;;;1.10;;
49310;SDS011;35177;45.900;5.946;2023-02-01T14:26:11;1.92;;;1.10;;
49310;SDS011;35177;45.900;5.946;2023-02-01T14:28:41;1.95;;;0.98;;
49310;SDS011;35177;45.900;5.946;2023-02-01T14:34:33;1.45;;;1.13;;
49310;SDS011;35177;45.900;5.946;2023-02-01T14:37:00;1.35;;;1.00;;
49310;SDS011;35177;45.900;5.946;2023-02-01T14:42:50;1.10;;;1.00;;
49310;SDS011;35177;45.900;5.946;2023-02-01T14:47:49;3.85;;;1.15;;
49310;SDS011;35177;45.900;5.946;2023-02-01T14:53:04;1.67;;;1.00;;
49310;SDS011;35177;45.900;5.946;2023-02-01T15:02:21;1.48;;;0.95;;
49310;SDS011;35177;45.900;5.946;2023-02-01T15:04:59;1.58;;;0.98;;
49310;SDS011;35177;45.900;5.946;2023-02-01T15:07:25;1.60;;;1.38;;
49310;SDS011;35177;45.900;5.946;2023-02-01T15:09:52;3.30;;;1.30;;
49310;SDS011;35177;45.900;5.946;2023-02-01T15:12:27;2.38;;;1.63;;
49310;SDS011;35177;45.900;5.946;2023-02-01T15:17:49;1.77;;;1.13;;
49310;SDS011;35177;45.900;5.946;2023-02-01T15:20:26;2.13;;;1.00;;
49310;SDS011;35177;45.900;5.946;2023-02-01T15:22:54;1.92;;;0.95;;
49310;SDS011;35177;45.900;5.946;2023-02-01T15:27:55;1.52;;;1.25;;
49310;SDS011;35177;45.900;5.946;2023-02-01T15:30:23;3.20;;;1.30;;
49310;SDS011;35177;45.900;5.946;2023-02-01T15:36:18;5.30;;;2.30;;
49310;SDS011;35177;45.900;5.946;2023-02-01T15:38:43;4.32;;;2.13;;
49310;SDS011;35177;45.900;5.946;2023-02-01T15:41:14;2.10;;;1.50;;
49310;SDS011;35177;45.900;5.946;2023-02-01T15:43:42;5.85;;;3.83;;
49310;SDS011;35177;45.900;5.946;2023-02-01T15:46:36;6.68;;;4.43;;
49310;SDS011;35177;45.900;5.946;2023-02-01T15:49:04;3.30;;;2.30;;
49310;SDS011;35177;45.900;5.946;2023-02-01T15:51:43;3.33;;;1.85;;
49310;SDS011;35177;45.900;5.946;2023-02-01T15:54:22;2.50;;;1.52;;
49310;SDS011;35177;45.900;5.946;2023-02-01T15:57:00;3.95;;;1.50;;
49310;SDS011;35177;45.900;5.946;2023-02-01T15:59:38;1.92;;;1.20;;
49310;SDS011;35177;45.900;5.946;2023-02-01T16:02:43;3.38;;;1.30;;
49310;SDS011;35177;45.900;5.946;2023-02-01T16:08:13;2.58;;;1.23;;
49310;SDS011;35177;45.900;5.946;2023-02-01T16:10:43;1.63;;;1.30;;
49310;SDS011;35177;45.900;5.946;2023-02-01T16:13:11;2.75;;;1.25;;
49310;SDS011;35177;45.900;5.946;2023-02-01T16:15:39;2.78;;;1.27;;
49310;SDS011;35177;45.900;5.946;2023-02-01T16:18:06;3.35;;;1.20;;
49310;SDS011;35177;45.900;5.946;2023-02-01T16:20:36;2.75;;;1.42;;
49310;SDS011;35177;45.900;5.946;2023-02-01T16:23:02;3.20;;;1.48;;
49310;SDS011;35177;45.900;5.946;2023-02-01T16:25:28;2.15;;;1.50;;
49310;SDS011;35177;45.900;5.946;2023-02-01T16:27:53;2.67;;;1.70;;
49310;SDS011;35177;45.900;5.946;2023-02-01T16:30:19;5.53;;;2.15;;
49310;SDS011;35177;45.900;5.946;2023-02-01T16:32:48;4.85;;;1.52;;
49310;SDS011;35177;45.900;5.946;2023-02-01T16:35:17;8.48;;;3.33;;
49310;SDS011;35177;45.900;5.946;2023-02-01T16:37:48;5.10;;;2.08;;
49310;SDS011;35177;45.900;5.946;2023-02-01T16:40:17;6.03;;;2.53;;
49310;SDS011;35177;45.900;5.946;2023-02-01T16:42:44;8.00;;;2.95;;
49310;SDS011;35177;45.900;5.946;2023-02-01T16:45:12;8.82;;;3.55;;
49310;SDS011;35177;45.900;5.946;2023-02-01T16:47:38;6.82;;;2.50;;
49310;SDS011;35177;45.900;5.946;2023-02-01T16:50:17;3.78;;;1.98;;
49310;SDS011;35177;45.900;5.946;2023-02-01T16:52:45;4.85;;;1.70;;
49310;SDS011;35177;45.900;5.946;2023-02-01T16:55:14;5.35;;;1.80;;
49310;SDS011;35177;45.900;5.946;2023-02-01T16:57:42;4.50;;;1.90;;
49310;SDS011;35177;45.900;5.946;2023-02-01T17:00:14;6.00;;;1.80;;
49310;SDS011;35177;45.900;5.946;2023-02-01T17:02:42;5.18;;;1.92;;
49310;SDS011;35177;45.900;5.946;2023-02-01T17:05:09;4.45;;;1.80;;
49310;SDS011;35177;45.900;5.946;2023-02-01T17:07:35;3.42;;;2.30;;
49310;SDS011;35177;45.900;5.946;2023-02-01T17:10:03;4.68;;;2.22;;
49310;SDS011;35177;45.900;5.946;2023-02-01T17:12:31;3.67;;;2.00;;
49310;SDS011;35177;45.900;5.946;2023-02-01T17:14:57;3.50;;;1.80;;
49310;SDS011;35177;45.900;5.946;2023-02-01T17:17:30;3.30;;;2.42;;
49310;SDS011;35177;45.900;5.946;2023-02-01T17:20:00;3.75;;;2.55;;
49310;SDS011;35177;45.900;5.946;2023-02-01T17:22:25;5.35;;;3.63;;
49310;SDS011;35177;45.900;5.946;2023-02-01T17:24:51;5.63;;;3.25;;
49310;SDS011;35177;45.900;5.946;2023-02-01T17:27:17;5.13;;;2.22;;
49310;SDS011;35177;45.900;5.946;2023-02-01T17:29:43;4.43;;;2.20;;
49310;SDS011;35177;45.900;5.946;2023-02-01T17:32:44;3.83;;;2.42;;
49310;SDS011;35177;45.900;5.946;2023-02-01T17:35:03;5.55;;;2.58;;
49310;SDS011;35177;45.900;5.946;2023-02-01T17:37:31;3.25;;;2.13;;
49310;SDS011;35177;45.900;5.946;2023-02-01T17:39:58;4.50;;;2.42;;
49310;SDS011;35177;45.900;5.946;2023-02-01T17:42:26;3.53;;;2.50;;
49310;SDS011;35177;45.900;5.946;2023-02-01T17:44:58;5.00;;;2.88;;
49310;SDS011;35177;45.900;5.946;2023-02-01T17:47:36;6.20;;;3.58;;
49310;SDS011;35177;45.900;5.946;2023-02-01T17:50:03;7.57;;;3.50;;
49310;SDS011;35177;45.900;5.946;2023-02-01T17:52:29;4.75;;;3.15;;
49310;SDS011;35177;45.900;5.946;2023-02-01T17:54:54;4.68;;;3.00;;
49310;SDS011;35177;45.900;5.946;2023-02-01T17:57:20;5.55;;;3.58;;
49310;SDS011;35177;45.900;5.946;2023-02-01T17:59:45;6.15;;;3.55;;
49310;SDS011;35177;45.900;5.946;2023-02-01T18:02:18;5.32;;;3.80;;
49310;SDS011;35177;45.900;5.946;2023-02-01T18:07:11;4.20;;;3.50;;
49310;SDS011;35177;45.900;5.946;2023-02-01T18:09:37;8.65;;;4.22;;
49310;SDS011;35177;45.900;5.946;2023-02-01T18:12:05;6.13;;;3.75;;